createdAt,value
2023-05-10T00:00:23.429Z,94464.53
2023-05-10T00:02:50.699Z,94463.81
2023-05-10T00:05:17.619Z,94465.72
2023-05-10T00:07:47.072Z,94462.03
2023-05-10T00:10:14.054Z,94456.88
2023-05-10T00:12:41.085Z,94463.34
2023-05-10T00:15:08.676Z,94462.72
2023-05-10T00:17:35.709Z,94460.91
2023-05-10T00:20:02.566Z,94459.16
2023-05-10T00:22:29.174Z,94457.81
2023-05-10T00:24:55.892Z,94449.25
2023-05-10T00:27:22.436Z,94446.22
2023-05-10T00:29:49.022Z,94443.84
2023-05-10T00:32:15.953Z,94456.50
2023-05-10T00:34:43.542Z,94445.78
2023-05-10T00:37:10.082Z,94443.94
2023-05-10T00:39:36.755Z,94443.28
2023-05-10T00:42:03.547Z,94449.59
2023-05-10T00:44:31.754Z,94447.19
2023-05-10T00:46:59.833Z,94441.81
2023-05-10T00:49:27.893Z,94437.88
2023-05-10T00:51:54.552Z,94435.13
2023-05-10T00:54:21.717Z,94433.88
2023-05-10T00:56:50.091Z,94437.53
2023-05-10T00:59:18.696Z,94427.19
2023-05-10T01:01:46.577Z,94429.16
2023-05-10T01:04:14.595Z,94426.22
2023-05-10T01:06:42.716Z,94427.66
2023-05-10T01:09:09.515Z,94431.28
2023-05-10T01:11:37.787Z,94425.94
2023-05-10T01:14:04.975Z,94432.09
2023-05-10T01:16:39.172Z,94425.22
2023-05-10T01:19:13.038Z,94422.78
2023-05-10T01:22:07.312Z,94425.22
2023-05-10T01:24:59.142Z,94427.25
2023-05-10T01:27:44.103Z,94423.41
2023-05-10T01:30:29.126Z,94425.53
2023-05-10T01:33:20.062Z,94429.13
2023-05-10T01:35:58.719Z,94427.31
2023-05-10T01:38:42.424Z,94426.03
2023-05-10T01:41:21.051Z,94435.16
2023-05-10T01:43:51.210Z,94424.81
2023-05-10T01:46:25.741Z,94433.28
2023-05-10T01:48:58.458Z,94428.41
2023-05-10T01:51:26.975Z,94422.63
2023-05-10T01:54:01.756Z,94428.53
2023-05-10T01:56:31.883Z,94429.38
2023-05-10T01:59:01.021Z,94437.03
2023-05-10T02:01:28.357Z,94428.63
2023-05-10T02:03:56.755Z,94430.94
2023-05-10T02:06:25.977Z,94444.03
2023-05-10T02:08:54.722Z,94438.69
2023-05-10T02:11:22.451Z,94443.41
2023-05-10T02:13:51.396Z,94437.94
2023-05-10T02:16:22.816Z,94442.41
2023-05-10T02:18:50.752Z,94442.91
2023-05-10T02:21:18.784Z,94443.06
2023-05-10T02:23:46.705Z,94448.00
2023-05-10T02:26:14.892Z,94449.00
2023-05-10T02:28:44.204Z,94452.91
2023-05-10T02:31:11.499Z,94448.09
2023-05-10T02:33:41.542Z,94449.00
2023-05-10T02:36:11.253Z,94452.53
2023-05-10T02:38:38.562Z,94457.78
2023-05-10T02:41:06.889Z,94453.41
2023-05-10T02:43:34.733Z,94450.94
2023-05-10T02:46:01.664Z,94450.03
2023-05-10T02:48:29.064Z,94452.28
2023-05-10T02:51:01.549Z,94448.41
2023-05-10T02:53:36.700Z,94459.47
2023-05-10T02:56:10.240Z,94457.03
2023-05-10T02:58:37.261Z,94453.94
2023-05-10T03:01:04.205Z,94459.13
2023-05-10T03:03:30.839Z,94455.44
2023-05-10T03:05:58.887Z,94456.66
2023-05-10T03:08:25.925Z,94457.66
2023-05-10T03:11:00.930Z,94459.09
2023-05-10T03:13:40.668Z,94465.88
2023-05-10T03:16:23.307Z,94465.88
2023-05-10T03:18:57.821Z,94465.75
2023-05-10T03:21:29.832Z,94471.44
2023-05-10T03:24:13.280Z,94468.72
2023-05-10T03:26:41.893Z,94473.09
2023-05-10T03:29:15.128Z,94466.91
2023-05-10T03:31:42.078Z,94470.72
2023-05-10T03:34:08.808Z,94475.25
2023-05-10T03:36:35.416Z,94469.59
2023-05-10T03:39:02.142Z,94472.19
2023-05-10T03:41:29.419Z,94470.94
2023-05-10T03:43:56.007Z,94476.44
2023-05-10T03:46:22.599Z,94477.66
2023-05-10T03:48:49.333Z,94480.91
2023-05-10T03:51:15.887Z,94477.25
2023-05-10T03:53:42.464Z,94484.34
2023-05-10T03:56:09.021Z,94486.75
2023-05-10T03:58:36.325Z,94489.31
2023-05-10T04:01:03.421Z,94494.63
2023-05-10T04:03:30.560Z,94492.91
2023-05-10T04:06:03.754Z,94490.81
2023-05-10T04:08:30.784Z,94487.78
2023-05-10T04:11:10.848Z,94488.06
2023-05-10T04:13:37.854Z,94494.03
2023-05-10T04:16:05.199Z,94492.47
2023-05-10T04:18:32.702Z,94498.88
2023-05-10T04:20:59.277Z,94502.78
2023-05-10T04:23:25.917Z,94502.78
2023-05-10T04:25:52.465Z,94506.97
2023-05-10T04:28:19.355Z,94509.13
2023-05-10T04:30:46.707Z,94510.78
2023-05-10T04:33:13.330Z,94506.91
2023-05-10T04:35:40.991Z,94515.03
2023-05-10T04:38:07.848Z,94515.50
2023-05-10T04:40:35.172Z,94517.81
2023-05-10T04:43:02.080Z,94521.66
2023-05-10T04:45:28.739Z,94519.19
2023-05-10T04:47:55.389Z,94519.66
2023-05-10T04:50:22.003Z,94521.47
2023-05-10T04:52:48.592Z,94526.13
2023-05-10T04:55:15.234Z,94528.28
2023-05-10T04:57:41.796Z,94534.91
2023-05-10T05:00:09.273Z,94529.09
2023-05-10T05:02:36.036Z,94532.69
2023-05-10T05:05:03.035Z,94535.78
2023-05-10T05:07:29.791Z,94537.88
2023-05-10T05:09:56.331Z,94542.19
2023-05-10T05:12:22.849Z,94547.91
2023-05-10T05:14:49.611Z,94545.63
2023-05-10T05:17:16.261Z,94543.19
2023-05-10T05:19:42.850Z,94548.25
2023-05-10T05:22:09.810Z,94552.03
2023-05-10T05:24:39.027Z,94552.75
2023-05-10T05:27:05.837Z,94554.81
2023-05-10T05:29:32.808Z,94557.56
2023-05-10T05:31:59.550Z,94552.19
2023-05-10T05:34:26.188Z,94563.00
2023-05-10T05:36:52.836Z,94562.78
2023-05-10T05:39:19.526Z,94558.25
2023-05-10T05:41:47.137Z,94566.13
2023-05-10T05:44:13.685Z,94573.88
2023-05-10T05:46:40.378Z,94572.06
2023-05-10T05:49:06.938Z,94568.84
2023-05-10T05:51:33.610Z,94574.31
2023-05-10T05:54:00.202Z,94578.41
2023-05-10T05:56:26.816Z,94582.16
2023-05-10T05:58:53.886Z,94581.56
2023-05-10T06:01:20.680Z,94576.38
2023-05-10T06:03:47.427Z,94586.75
2023-05-10T06:06:14.361Z,94583.78
2023-05-10T06:08:41.178Z,94591.91
2023-05-10T06:11:07.722Z,94595.78
2023-05-10T06:13:36.164Z,94595.09
2023-05-10T06:16:03.696Z,94599.41
2023-05-10T06:18:30.300Z,94605.91
2023-05-10T06:20:57.070Z,94602.69
2023-05-10T06:23:23.629Z,94611.13
2023-05-10T06:25:50.577Z,94609.88
2023-05-10T06:28:17.198Z,94614.28
2023-05-10T06:30:44.233Z,94609.88
2023-05-10T06:33:10.927Z,94624.25
2023-05-10T06:35:37.791Z,94619.66
2023-05-10T06:38:04.360Z,94620.59
2023-05-10T06:40:31.256Z,94624.44
2023-05-10T06:42:57.837Z,94614.09
2023-05-10T06:45:24.384Z,94626.16
2023-05-10T06:47:51.126Z,94619.72
2023-05-10T06:50:17.749Z,94622.88
2023-05-10T06:52:44.646Z,94631.47
2023-05-10T06:55:11.561Z,94627.16
2023-05-10T06:57:38.198Z,94630.06
2023-05-10T07:00:05.848Z,94626.28
2023-05-10T07:02:32.671Z,94633.31
2023-05-10T07:05:01.685Z,94629.94
2023-05-10T07:07:29.866Z,94627.84
2023-05-10T07:09:57.618Z,94625.94
2023-05-10T07:12:25.055Z,94638.59
2023-05-10T07:14:51.683Z,94629.22
2023-05-10T07:17:18.493Z,94630.84
2023-05-10T07:19:45.282Z,94625.13
2023-05-10T07:22:12.160Z,94632.81
2023-05-10T07:24:38.794Z,94636.75
2023-05-10T07:27:05.473Z,94632.28
2023-05-10T07:29:32.157Z,94641.22
2023-05-10T07:31:59.088Z,94647.59
2023-05-10T07:34:26.029Z,94643.28
2023-05-10T07:36:53.432Z,94638.09
2023-05-10T07:39:27.303Z,94637.81
2023-05-10T07:41:55.680Z,94640.50
2023-05-10T07:44:22.369Z,94636.56
2023-05-10T07:46:49.531Z,94640.31
2023-05-10T07:49:16.298Z,94642.56
2023-05-10T07:51:43.621Z,94651.28
2023-05-10T07:54:10.448Z,94643.91
2023-05-10T07:56:37.138Z,94638.59
2023-05-10T07:59:08.791Z,94643.25
2023-05-10T08:01:36.777Z,94641.81
2023-05-10T08:04:03.626Z,94639.03
2023-05-10T08:06:31.022Z,94630.47
2023-05-10T08:08:58.220Z,94632.34
2023-05-10T08:11:25.928Z,94627.72
2023-05-10T08:13:53.868Z,94638.72
2023-05-10T08:16:21.176Z,94633.00
2023-05-10T08:18:48.273Z,94629.41
2023-05-10T08:21:15.574Z,94635.06
2023-05-10T08:23:42.249Z,94639.88
2023-05-10T08:26:08.935Z,94641.22
2023-05-10T08:28:35.598Z,94644.34
2023-05-10T08:31:02.285Z,94637.84
2023-05-10T08:33:28.856Z,94643.19
2023-05-10T08:35:55.424Z,94636.34
2023-05-10T08:38:22.007Z,94647.47
2023-05-10T08:40:51.696Z,94644.31
2023-05-10T08:43:19.317Z,94649.19
2023-05-10T08:45:48.891Z,94647.44
2023-05-10T08:48:16.480Z,94650.69
2023-05-10T08:50:44.005Z,94646.16
2023-05-10T08:53:16.025Z,94643.28
2023-05-10T08:55:43.737Z,94645.50
2023-05-10T08:58:11.073Z,94649.31
2023-05-10T09:00:38.609Z,94649.28
2023-05-10T09:03:06.729Z,94647.16
2023-05-10T09:05:34.052Z,94642.19
2023-05-10T09:08:01.541Z,94646.50
2023-05-10T09:10:30.332Z,94644.63
2023-05-10T09:12:59.360Z,94646.59
2023-05-10T09:15:26.742Z,94644.97
2023-05-10T09:17:53.435Z,94644.47
2023-05-10T09:20:20.253Z,94647.03
2023-05-10T09:22:47.223Z,94639.88
2023-05-10T09:25:18.115Z,94644.91
2023-05-10T09:27:46.273Z,94642.88
2023-05-10T09:30:29.375Z,94636.66
2023-05-10T09:32:57.263Z,94641.69
2023-05-10T09:35:28.007Z,94640.25
2023-05-10T09:37:59.210Z,94639.88
2023-05-10T09:40:27.715Z,94643.28
2023-05-10T09:43:08.580Z,94645.72
2023-05-10T09:45:38.560Z,94650.78
2023-05-10T09:48:06.206Z,94644.84
2023-05-10T09:50:33.030Z,94645.91
2023-05-10T09:53:03.699Z,94644.97
2023-05-10T09:55:39.436Z,94642.03
2023-05-10T09:58:10.399Z,94649.31
2023-05-10T10:00:39.292Z,94641.44
2023-05-10T10:03:06.527Z,94637.47
2023-05-10T10:05:37.166Z,94637.81
2023-05-10T10:08:05.723Z,94640.09
2023-05-10T10:10:33.882Z,94641.47
2023-05-10T10:13:00.877Z,94641.53
2023-05-10T10:15:27.732Z,94637.88
2023-05-10T10:17:54.954Z,94642.34
2023-05-10T10:20:23.580Z,94651.09
2023-05-10T10:22:50.751Z,94655.16
2023-05-10T10:25:19.904Z,94658.59
2023-05-10T10:27:52.743Z,94665.97
2023-05-10T10:30:43.613Z,94664.19
2023-05-10T10:33:38.821Z,94658.75
2023-05-10T10:36:07.308Z,94666.34
2023-05-10T10:38:49.337Z,94656.56
2023-05-10T10:41:31.733Z,94664.31
2023-05-10T10:44:23.555Z,94670.38
2023-05-10T10:47:25.491Z,94666.91
2023-05-10T10:49:55.888Z,94671.72
2023-05-10T10:52:44.288Z,94676.28
2023-05-10T10:55:23.357Z,94664.31
2023-05-10T10:58:07.730Z,94675.09
2023-05-10T11:00:37.925Z,94662.66
2023-05-10T11:03:09.535Z,94666.16
2023-05-10T11:05:47.284Z,94661.88
2023-05-10T11:08:21.906Z,94661.25
2023-05-10T11:11:01.692Z,94662.66
2023-05-10T11:13:31.246Z,94669.28
2023-05-10T11:15:58.810Z,94664.78
2023-05-10T11:18:28.480Z,94667.69
2023-05-10T11:21:04.271Z,94662.28
2023-05-10T11:23:40.867Z,94663.16
2023-05-10T11:26:12.020Z,94665.53
2023-05-10T11:28:45.489Z,94675.19
2023-05-10T11:31:15.115Z,94664.47
2023-05-10T11:33:52.777Z,94670.59
2023-05-10T11:36:30.391Z,94666.69
2023-05-10T11:38:57.852Z,94668.78
2023-05-10T11:41:25.478Z,94665.47
2023-05-10T11:43:56.437Z,94669.19
2023-05-10T11:46:25.466Z,94668.41
2023-05-10T11:48:58.839Z,94659.78
2023-05-10T11:51:26.388Z,94665.81
2023-05-10T11:53:57.485Z,94661.03
2023-05-10T11:56:24.509Z,94658.09
2023-05-10T11:58:58.658Z,94658.16
2023-05-10T12:01:27.388Z,94666.22
2023-05-10T12:03:59.635Z,94664.84
2023-05-10T12:06:36.516Z,94673.81
2023-05-10T12:09:06.903Z,94685.09
2023-05-10T12:11:37.283Z,94683.72
2023-05-10T12:14:06.142Z,94674.38
2023-05-10T12:16:32.789Z,94677.38
2023-05-10T12:19:01.624Z,94689.22
2023-05-10T12:21:29.990Z,94702.94
2023-05-10T12:24:01.996Z,94705.84
2023-05-10T12:26:29.230Z,94700.22
2023-05-10T12:29:12.159Z,94701.25
2023-05-10T12:31:56.188Z,94694.97
2023-05-10T12:34:32.994Z,94707.13
2023-05-10T12:37:00.844Z,94712.59
2023-05-10T12:39:27.409Z,94700.34
2023-05-10T12:41:54.284Z,94700.81
2023-05-10T12:44:20.964Z,94701.16
2023-05-10T12:46:47.526Z,94699.19
2023-05-10T12:49:14.221Z,94703.56
2023-05-10T12:51:40.810Z,94702.72
2023-05-10T12:54:07.486Z,94700.13
2023-05-10T12:56:34.075Z,94703.00
2023-05-10T12:59:00.795Z,94706.88
2023-05-10T13:01:27.688Z,94706.50
2023-05-10T13:03:54.325Z,94716.13
2023-05-10T13:06:21.112Z,94699.34
2023-05-10T13:08:47.656Z,94710.31
2023-05-10T13:11:17.584Z,94714.53
2023-05-10T13:13:44.267Z,94715.19
2023-05-10T13:16:10.921Z,94721.47
2023-05-10T13:18:37.790Z,94719.56
2023-05-10T13:21:06.352Z,94727.00
2023-05-10T13:23:33.185Z,94728.94
2023-05-10T13:25:59.786Z,94728.47
2023-05-10T13:28:27.336Z,94726.91
2023-05-10T13:30:54.163Z,94732.16
2023-05-10T13:33:20.917Z,94732.38
2023-05-10T13:35:47.833Z,94739.88
2023-05-10T13:38:14.757Z,94744.56
2023-05-10T13:40:41.635Z,94749.31
2023-05-10T13:43:08.272Z,94767.59
2023-05-10T13:45:34.854Z,94761.94
2023-05-10T13:48:01.543Z,94756.47
2023-05-10T13:50:28.196Z,94754.84
2023-05-10T13:52:55.019Z,94755.31
2023-05-10T13:55:21.758Z,94752.72
2023-05-10T13:57:48.503Z,94749.53
2023-05-10T14:00:16.141Z,94750.63
2023-05-10T14:02:42.965Z,94753.88
2023-05-10T14:05:09.801Z,94757.13
2023-05-10T14:07:36.604Z,94753.91
2023-05-10T14:10:03.803Z,94752.78
2023-05-10T14:12:30.648Z,94755.50
2023-05-10T14:14:57.590Z,94750.84
2023-05-10T14:17:24.360Z,94745.50
2023-05-10T14:19:50.969Z,94755.00
2023-05-10T14:22:17.698Z,94751.91
2023-05-10T14:24:47.628Z,94752.22
2023-05-10T14:27:14.292Z,94753.88
2023-05-10T14:29:40.926Z,94751.56
2023-05-10T14:32:07.575Z,94756.28
2023-05-10T14:34:34.634Z,94752.56
2023-05-10T14:37:01.216Z,94764.53
2023-05-10T14:39:30.576Z,94764.19
2023-05-10T14:41:57.795Z,94758.72
2023-05-10T14:44:24.750Z,94762.94
2023-05-10T14:46:51.714Z,94765.53
2023-05-10T14:49:18.247Z,94766.47
2023-05-10T14:51:45.938Z,94771.97
2023-05-10T14:54:12.548Z,94773.28
2023-05-10T14:56:39.344Z,94765.03
2023-05-10T14:59:06.750Z,94773.41
2023-05-10T15:01:35.649Z,94774.88
2023-05-10T15:04:02.720Z,94777.63
2023-05-10T15:06:33.708Z,94774.88
2023-05-10T15:09:00.836Z,94770.84
2023-05-10T15:11:27.729Z,94775.06
2023-05-10T15:13:54.589Z,94776.34
2023-05-10T15:16:22.060Z,94781.31
2023-05-10T15:18:49.382Z,94773.09
2023-05-10T15:21:16.064Z,94776.47
2023-05-10T15:23:42.617Z,94776.28
2023-05-10T15:26:09.312Z,94783.59
2023-05-10T15:28:35.894Z,94787.47
2023-05-10T15:31:02.597Z,94785.22
2023-05-10T15:33:29.758Z,94785.22
2023-05-10T15:35:56.704Z,94785.38
2023-05-10T15:38:23.551Z,94787.66
2023-05-10T15:40:50.116Z,94786.69
2023-05-10T15:43:17.372Z,94784.41
2023-05-10T15:45:43.895Z,94788.56
2023-05-10T15:48:10.704Z,94787.31
2023-05-10T15:50:37.374Z,94789.91
2023-05-10T15:53:03.942Z,94789.75
2023-05-10T15:55:31.020Z,94797.13
2023-05-10T15:57:57.570Z,94800.34
2023-05-10T16:00:24.278Z,94804.38
2023-05-10T16:02:54.049Z,94804.06
2023-05-10T16:05:20.852Z,94799.72
2023-05-10T16:07:47.678Z,94804.75
2023-05-10T16:10:14.253Z,94797.66
2023-05-10T16:12:40.896Z,94803.25
2023-05-10T16:15:08.512Z,94805.69
2023-05-10T16:17:35.128Z,94808.22
2023-05-10T16:20:01.864Z,94810.81
2023-05-10T16:22:29.053Z,94812.59
2023-05-10T16:24:57.424Z,94810.66
2023-05-10T16:27:24.039Z,94827.25
2023-05-10T16:29:50.602Z,94823.03
2023-05-10T16:32:17.142Z,94825.28
2023-05-10T16:34:43.882Z,94822.69
2023-05-10T16:37:11.185Z,94822.31
2023-05-10T16:39:37.773Z,94824.50
2023-05-10T16:42:04.462Z,94827.09
2023-05-10T16:44:31.100Z,94829.13
2023-05-10T16:46:58.224Z,94829.78
2023-05-10T16:49:26.193Z,94836.53
2023-05-10T16:51:53.285Z,94834.28
2023-05-10T16:54:21.378Z,94836.06
2023-05-10T16:56:48.040Z,94837.25
2023-05-10T16:59:14.575Z,94834.63
2023-05-10T17:01:41.240Z,94838.34
2023-05-10T17:04:08.155Z,94849.47
2023-05-10T17:06:36.802Z,94847.25
2023-05-10T17:09:04.135Z,94844.72
2023-05-10T17:11:31.040Z,94849.28
2023-05-10T17:13:59.295Z,94849.44
2023-05-10T17:16:25.847Z,94852.69
2023-05-10T17:18:52.850Z,94855.78
2023-05-10T17:21:19.885Z,94854.28
2023-05-10T17:23:46.678Z,94859.53
2023-05-10T17:26:13.348Z,94859.63
2023-05-10T17:28:39.917Z,94860.72
2023-05-10T17:31:06.534Z,94857.84
2023-05-10T17:33:33.240Z,94864.81
2023-05-10T17:35:59.772Z,94862.09
2023-05-10T17:38:26.487Z,94861.03
2023-05-10T17:40:53.073Z,94859.00
2023-05-10T17:43:20.194Z,94863.63
2023-05-10T17:45:49.957Z,94862.53
2023-05-10T17:48:17.238Z,94863.44
2023-05-10T17:50:44.477Z,94870.75
2023-05-10T17:53:11.573Z,94866.94
2023-05-10T17:55:41.989Z,94860.09
2023-05-10T17:58:10.816Z,94863.94
2023-05-10T18:00:38.132Z,94867.94
2023-05-10T18:03:07.535Z,94869.03
2023-05-10T18:05:38.809Z,94868.59
2023-05-10T18:08:06.067Z,94874.34
2023-05-10T18:10:33.726Z,94878.25
2023-05-10T18:13:02.277Z,94872.81
2023-05-10T18:15:29.094Z,94878.63
2023-05-10T18:17:56.792Z,94875.16
2023-05-10T18:20:23.804Z,94877.13
2023-05-10T18:22:50.452Z,94870.81
2023-05-10T18:25:17.690Z,94873.97
2023-05-10T18:27:44.422Z,94872.72
2023-05-10T18:30:12.423Z,94875.75
2023-05-10T18:32:39.607Z,94877.84
2023-05-10T18:35:07.685Z,94878.53
2023-05-10T18:37:35.071Z,94869.72
2023-05-10T18:40:01.744Z,94877.44
2023-05-10T18:42:28.437Z,94877.13
2023-05-10T18:44:55.714Z,94875.88
2023-05-10T18:47:22.618Z,94882.81
2023-05-10T18:49:49.326Z,94889.66
2023-05-10T18:52:16.099Z,94887.50
2023-05-10T18:54:43.038Z,94886.75
2023-05-10T18:57:09.706Z,94892.88
2023-05-10T18:59:36.421Z,94889.34
2023-05-10T19:02:03.064Z,94892.06
2023-05-10T19:04:29.833Z,94893.03
2023-05-10T19:06:56.733Z,94890.00
2023-05-10T19:09:23.681Z,94894.94
2023-05-10T19:11:51.449Z,94894.94
2023-05-10T19:14:18.139Z,94895.16
2023-05-10T19:16:49.526Z,94905.41
2023-05-10T19:19:16.401Z,94903.66
2023-05-10T19:21:43.042Z,94898.44
2023-05-10T19:24:10.031Z,94898.88
2023-05-10T19:26:36.884Z,94904.53
2023-05-10T19:29:03.616Z,94899.84
2023-05-10T19:31:30.431Z,94902.47
2023-05-10T19:33:59.950Z,94894.06
2023-05-10T19:36:27.269Z,94900.81
2023-05-10T19:38:53.928Z,94902.59
2023-05-10T19:41:20.628Z,94897.44
2023-05-10T19:43:47.514Z,94892.94
2023-05-10T19:46:15.698Z,94897.59
2023-05-10T19:48:44.018Z,94897.31
2023-05-10T19:51:13.343Z,94901.13
2023-05-10T19:53:44.170Z,94898.59
2023-05-10T19:56:11.283Z,94900.34
2023-05-10T19:58:37.821Z,94895.31
2023-05-10T20:01:07.412Z,94900.19
2023-05-10T20:03:34.757Z,94896.72
2023-05-10T20:06:02.035Z,94893.50
2023-05-10T20:08:28.896Z,94891.63
2023-05-10T20:10:58.812Z,94903.00
2023-05-10T20:13:25.639Z,94900.13
2023-05-10T20:15:56.057Z,94898.38
2023-05-10T20:18:23.298Z,94902.84
2023-05-10T20:20:57.913Z,94900.06
2023-05-10T20:23:24.506Z,94897.38
2023-05-10T20:25:51.296Z,94898.69
2023-05-10T20:28:25.307Z,94896.00
2023-05-10T20:30:53.808Z,94886.66
2023-05-10T20:33:21.550Z,94893.00
2023-05-10T20:35:48.599Z,94890.59
2023-05-10T20:38:15.315Z,94892.63
2023-05-10T20:40:42.221Z,94890.47
2023-05-10T20:43:08.886Z,94894.38
2023-05-10T20:45:37.559Z,94895.63
2023-05-10T20:48:05.176Z,94892.59
2023-05-10T20:50:31.796Z,94895.63
2023-05-10T20:52:58.352Z,94887.91
2023-05-10T20:55:25.024Z,94899.41
2023-05-10T20:57:51.819Z,94892.09
2023-05-10T21:00:18.805Z,94895.09
2023-05-10T21:02:46.291Z,94881.66
2023-05-10T21:05:12.989Z,94886.56
2023-05-10T21:07:39.875Z,94884.13
2023-05-10T21:10:08.336Z,94880.03
2023-05-10T21:12:34.963Z,94875.97
2023-05-10T21:15:01.673Z,94878.84
2023-05-10T21:17:28.345Z,94874.06
2023-05-10T21:19:55.299Z,94866.50
2023-05-10T21:22:21.819Z,94881.94
2023-05-10T21:24:48.651Z,94869.44
2023-05-10T21:27:15.221Z,94869.75
2023-05-10T21:29:42.069Z,94872.88
2023-05-10T21:32:09.686Z,94867.31
2023-05-10T21:34:36.420Z,94870.03
2023-05-10T21:37:03.122Z,94869.38
2023-05-10T21:39:29.853Z,94874.06
2023-05-10T21:41:56.398Z,94874.50
2023-05-10T21:44:22.963Z,94877.16
2023-05-10T21:46:49.640Z,94871.66
2023-05-10T21:49:16.598Z,94875.72
2023-05-10T21:51:43.136Z,94873.94
2023-05-10T21:54:09.866Z,94871.66
2023-05-10T21:56:37.046Z,94879.66
2023-05-10T21:59:04.328Z,94874.50
2023-05-10T22:01:31.079Z,94877.97
2023-05-10T22:03:57.636Z,94878.94
2023-05-10T22:06:24.326Z,94867.56
2023-05-10T22:08:51.079Z,94879.38
2023-05-10T22:11:17.806Z,94881.41
2023-05-10T22:13:44.739Z,94877.88
2023-05-10T22:16:11.282Z,94884.81
2023-05-10T22:18:37.880Z,94881.00
2023-05-10T22:21:04.641Z,94887.09
2023-05-10T22:23:31.513Z,94880.06
2023-05-10T22:26:02.582Z,94889.16
2023-05-10T22:28:29.782Z,94881.66
2023-05-10T22:30:56.559Z,94883.47
2023-05-10T22:33:23.323Z,94885.75
2023-05-10T22:35:50.038Z,94876.53
2023-05-10T22:38:16.647Z,94876.00
2023-05-10T22:40:43.166Z,94874.91
2023-05-10T22:43:09.941Z,94866.16
2023-05-10T22:45:36.481Z,94873.72
2023-05-10T22:48:08.432Z,94867.66
2023-05-10T22:50:36.842Z,94862.38
2023-05-10T22:53:03.406Z,94870.34
2023-05-10T22:55:30.454Z,94864.69
2023-05-10T22:57:57.071Z,94877.84
2023-05-10T23:00:23.836Z,94873.63
2023-05-10T23:02:50.566Z,94872.28
2023-05-10T23:05:17.704Z,94875.94
2023-05-10T23:07:44.247Z,94881.47
2023-05-10T23:10:11.429Z,94879.44
2023-05-10T23:12:38.324Z,94877.25
2023-05-10T23:15:05.591Z,94868.88
2023-05-10T23:17:32.108Z,94872.78
2023-05-10T23:19:58.917Z,94870.50
2023-05-10T23:22:25.558Z,94865.50
2023-05-10T23:24:52.129Z,94868.75
2023-05-10T23:27:18.850Z,94874.31
2023-05-10T23:29:45.465Z,94866.19
2023-05-10T23:32:12.038Z,94872.25
2023-05-10T23:34:38.709Z,94871.88
2023-05-10T23:37:06.129Z,94871.06
2023-05-10T23:39:32.662Z,94869.31
2023-05-10T23:41:59.314Z,94866.19
2023-05-10T23:44:26.006Z,94859.44
2023-05-10T23:46:52.831Z,94852.38
2023-05-10T23:49:19.430Z,94866.19
2023-05-10T23:51:46.166Z,94862.53
2023-05-10T23:54:12.901Z,94861.34
2023-05-10T23:56:39.494Z,94855.41
2023-05-10T23:59:06.138Z,94851.72
